createdAt,value
2018-06-08T00:00:37.963Z,23.23
2018-06-08T00:03:06.787Z,25.63
2018-06-08T00:05:35.586Z,22.30
2018-06-08T00:08:04.445Z,32.83
2018-06-08T00:10:33.332Z,16.87
2018-06-08T00:13:02.260Z,22.40
2018-06-08T00:15:31.142Z,16.37
2018-06-08T00:17:59.968Z,23.23
2018-06-08T00:20:28.833Z,12.70
2018-06-08T00:22:57.745Z,18.67
2018-06-08T00:25:26.533Z,13.03
2018-06-08T00:27:55.381Z,11.33
2018-06-08T00:30:24.237Z,27.53
2018-06-08T00:32:53.101Z,9.47
2018-06-08T00:35:21.845Z,8.93
2018-06-08T00:37:50.712Z,10.27
2018-06-08T00:40:19.596Z,9.43
2018-06-08T00:42:48.416Z,12.87
2018-06-08T00:45:17.281Z,12.07
2018-06-08T00:47:46.100Z,12.10
2018-06-08T00:50:14.906Z,11.03
2018-06-08T00:52:43.754Z,9.00
2018-06-08T00:55:12.490Z,9.07
2018-06-08T00:57:41.297Z,8.37
2018-06-08T01:00:10.137Z,13.83
2018-06-08T01:02:38.918Z,10.80
2018-06-08T01:05:07.741Z,11.37
2018-06-08T01:07:36.689Z,8.97
2018-06-08T01:10:05.649Z,12.70
2018-06-08T01:12:38.796Z,9.97
2018-06-08T01:15:12.974Z,10.50
2018-06-08T01:17:47.414Z,11.50
2018-06-08T01:20:21.539Z,22.93
2018-06-08T01:22:55.041Z,12.30
2018-06-08T01:25:29.112Z,10.30
2018-06-08T01:28:02.184Z,22.13
2018-06-08T01:30:36.498Z,14.20
2018-06-08T01:33:11.378Z,12.60
2018-06-08T01:35:44.999Z,14.93
2018-06-08T01:38:20.070Z,20.60
2018-06-08T01:40:54.389Z,14.10
2018-06-08T01:43:28.926Z,12.00
2018-06-08T01:46:06.645Z,16.53
2018-06-08T01:48:39.858Z,19.77
2018-06-08T01:51:13.204Z,16.20
2018-06-08T01:53:47.480Z,15.50
2018-06-08T01:56:20.545Z,14.80
2018-06-08T01:58:53.491Z,16.90
2018-06-08T02:01:25.906Z,15.17
2018-06-08T02:03:58.456Z,20.63
2018-06-08T02:06:29.076Z,15.33
2018-06-08T02:08:59.625Z,22.90
2018-06-08T02:11:32.371Z,20.20
2018-06-08T02:14:05.332Z,20.70
2018-06-08T02:16:40.108Z,17.50
2018-06-08T02:19:13.121Z,20.73
2018-06-08T02:21:46.725Z,22.40
2018-06-08T02:24:19.670Z,22.70
2018-06-08T02:26:54.508Z,26.63
2018-06-08T02:29:29.187Z,21.80
2018-06-08T02:32:03.189Z,23.43
2018-06-08T02:34:36.726Z,23.60
2018-06-08T02:37:12.888Z,26.17
2018-06-08T02:39:46.082Z,36.63
2018-06-08T02:42:19.889Z,46.23
2018-06-08T02:44:55.667Z,25.13
2018-06-08T02:47:30.076Z,33.60
2018-06-08T02:50:03.151Z,30.87
2018-06-08T02:52:37.290Z,29.73
2018-06-08T02:55:10.321Z,29.63
2018-06-08T02:57:46.181Z,26.53
2018-06-08T03:00:24.526Z,28.60
2018-06-08T03:02:58.040Z,27.73
2018-06-08T03:05:31.249Z,34.93
2018-06-08T03:08:06.064Z,26.70
2018-06-08T03:10:40.084Z,25.43
2018-06-08T03:13:13.207Z,30.50
2018-06-08T03:15:46.357Z,35.17
2018-06-08T03:18:19.202Z,29.17
2018-06-08T03:20:57.324Z,40.58
2018-06-08T03:23:33.686Z,26.17
2018-06-08T03:26:08.099Z,28.67
2018-06-08T03:28:41.355Z,25.63
2018-06-08T03:31:14.538Z,28.13
2018-06-08T03:33:47.844Z,28.43
2018-06-08T03:36:24.217Z,27.10
2018-06-08T03:38:57.465Z,30.00
2018-06-08T03:41:30.109Z,28.30
2018-06-08T03:44:03.915Z,23.60
2018-06-08T03:46:37.621Z,28.63
2018-06-08T03:49:10.080Z,25.07
2018-06-08T03:51:42.613Z,24.57
2018-06-08T03:54:13.947Z,27.40
2018-06-08T03:56:50.750Z,27.30
2018-06-08T03:59:23.647Z,23.10
2018-06-08T04:01:55.227Z,25.57
2018-06-08T04:04:27.015Z,25.00
2018-06-08T04:07:00.504Z,35.40
2018-06-08T04:09:32.836Z,31.47
2018-06-08T04:12:04.754Z,27.53
2018-06-08T04:14:34.978Z,23.70
2018-06-08T04:17:07.652Z,25.73
2018-06-08T04:19:40.437Z,34.93
2018-06-08T04:22:13.154Z,28.63
2018-06-08T04:24:45.640Z,29.20
2018-06-08T04:27:20.223Z,27.05
2018-06-08T04:29:52.995Z,23.43
2018-06-08T04:32:26.705Z,26.10
2018-06-08T04:34:59.350Z,28.33
2018-06-08T04:37:32.085Z,28.00
2018-06-08T04:40:04.273Z,26.33
2018-06-08T04:42:36.976Z,28.30
2018-06-08T04:45:11.452Z,26.53
2018-06-08T04:47:44.238Z,28.50
2018-06-08T04:50:17.714Z,29.70
2018-06-08T04:52:50.517Z,27.73
2018-06-08T04:55:23.323Z,27.17
2018-06-08T04:57:55.969Z,34.80
2018-06-08T05:00:29.889Z,21.93
2018-06-08T05:03:02.336Z,19.17
2018-06-08T05:05:35.723Z,22.37
2018-06-08T05:08:07.830Z,28.13
2018-06-08T05:10:38.640Z,15.10
2018-06-08T05:13:09.449Z,15.00
2018-06-08T05:15:42.780Z,15.80
2018-06-08T05:18:15.666Z,15.57
2018-06-08T05:20:48.385Z,13.00
2018-06-08T05:23:22.792Z,14.43
2018-06-08T05:25:54.826Z,18.83
2018-06-08T05:28:28.129Z,20.00
2018-06-08T05:31:00.799Z,17.27
2018-06-08T05:33:34.381Z,20.53
2018-06-08T05:36:06.578Z,17.30
2018-06-08T05:38:36.403Z,18.77
2018-06-08T05:41:09.880Z,19.00
2018-06-08T05:43:42.028Z,21.33
2018-06-08T05:46:15.841Z,22.60
2018-06-08T05:48:48.642Z,14.70
2018-06-08T05:51:19.038Z,18.40
2018-06-08T05:53:51.288Z,15.77
2018-06-08T05:56:23.695Z,17.43
2018-06-08T05:58:53.882Z,21.03
2018-06-08T06:01:25.068Z,12.17
2018-06-08T06:03:57.824Z,18.00
2018-06-08T06:06:30.624Z,15.20
2018-06-08T06:09:02.968Z,13.77
2018-06-08T06:11:35.629Z,17.00
2018-06-08T06:14:06.655Z,16.97
2018-06-08T06:16:39.555Z,43.50
2018-06-08T06:19:09.721Z,18.37
2018-06-08T06:21:40.137Z,17.67
2018-06-08T06:24:16.584Z,16.03
2018-06-08T06:26:47.678Z,15.60
2018-06-08T06:29:19.354Z,19.80
2018-06-08T06:31:49.983Z,17.50
2018-06-08T06:34:20.493Z,10.37
2018-06-08T06:36:50.952Z,12.13
2018-06-08T06:39:21.048Z,25.57
2018-06-08T06:41:51.713Z,19.03
2018-06-08T06:44:21.558Z,14.73
2018-06-08T06:47:00.103Z,15.23
2018-06-08T06:49:31.896Z,15.50
2018-06-08T06:52:04.008Z,25.23
2018-06-08T06:54:33.856Z,14.83
2018-06-08T06:57:09.685Z,15.57
2018-06-08T06:59:40.603Z,18.77
2018-06-08T07:02:11.285Z,15.90
2018-06-08T07:04:42.147Z,17.57
2018-06-08T07:07:12.812Z,11.60
2018-06-08T07:09:43.381Z,10.10
2018-06-08T07:12:13.740Z,12.40
2018-06-08T07:14:45.321Z,13.67
2018-06-08T07:17:16.283Z,17.83
2018-06-08T07:19:49.669Z,11.07
2018-06-08T07:22:21.911Z,13.43
2018-06-08T07:24:53.362Z,14.30
2018-06-08T07:27:25.538Z,10.37
2018-06-08T07:29:57.190Z,11.70
2018-06-08T07:32:28.387Z,15.37
2018-06-08T07:35:00.500Z,13.13
2018-06-08T07:37:32.094Z,13.53
2018-06-08T07:40:03.613Z,10.40
2018-06-08T07:42:36.640Z,15.57
2018-06-08T07:45:09.256Z,10.90
2018-06-08T07:47:48.377Z,14.10
2018-06-08T07:50:20.338Z,13.17
2018-06-08T07:52:52.247Z,14.93
2018-06-08T07:55:23.913Z,12.30
2018-06-08T07:57:55.242Z,21.83
2018-06-08T08:00:27.786Z,13.07
2018-06-08T08:02:58.301Z,13.40
2018-06-08T08:05:30.195Z,11.87
2018-06-08T08:08:01.963Z,12.40
2018-06-08T08:10:32.383Z,18.13
2018-06-08T08:13:03.778Z,12.93
2018-06-08T08:15:34.843Z,12.63
2018-06-08T08:18:05.942Z,13.30
2018-06-08T08:20:37.026Z,18.83
2018-06-08T08:23:05.972Z,14.00
2018-06-08T08:25:34.817Z,13.83
2018-06-08T08:28:03.686Z,15.47
2018-06-08T08:30:32.570Z,11.43
2018-06-08T08:33:01.402Z,16.57
2018-06-08T08:35:30.619Z,14.27
2018-06-08T08:37:59.481Z,12.87
2018-06-08T08:40:28.407Z,16.90
2018-06-08T08:42:57.373Z,13.63
2018-06-08T08:45:26.294Z,14.03
2018-06-08T08:47:55.363Z,19.10
2018-06-08T08:50:24.297Z,21.83
2018-06-08T08:52:53.253Z,18.97
2018-06-08T08:55:22.359Z,23.63
2018-06-08T08:57:51.412Z,17.93
2018-06-08T09:00:38.682Z,20.53
2018-06-08T09:03:07.633Z,16.53
2018-06-08T09:05:36.549Z,19.60
2018-06-08T09:08:05.648Z,24.57
2018-06-08T09:10:34.856Z,19.23
2018-06-08T09:13:03.765Z,17.17
2018-06-08T09:15:32.668Z,18.50
2018-06-08T09:18:01.626Z,20.93
2018-06-08T09:20:30.882Z,18.57
2018-06-08T09:22:59.880Z,23.17
2018-06-08T09:25:29.013Z,29.10
2018-06-08T09:27:58.021Z,20.80
2018-06-08T09:30:27.016Z,43.13
2018-06-08T09:32:56.031Z,27.80
2018-06-08T09:35:24.903Z,30.93
2018-06-08T09:37:53.804Z,23.97
2018-06-08T09:40:22.714Z,26.93
2018-06-08T09:42:51.774Z,21.83
2018-06-08T09:45:20.822Z,35.80
2018-06-08T09:47:49.643Z,28.17
2018-06-08T09:50:20.478Z,25.20
2018-06-08T09:52:49.287Z,25.73
2018-06-08T09:55:18.335Z,24.60
2018-06-08T09:57:47.193Z,24.00
2018-06-08T10:00:20.241Z,24.90
2018-06-08T10:02:49.248Z,31.23
2018-06-08T10:05:18.197Z,25.17
2018-06-08T10:07:47.062Z,33.43
2018-06-08T10:10:16.181Z,22.27
2018-06-08T10:12:45.706Z,22.43
2018-06-08T10:15:15.497Z,23.73
2018-06-08T10:17:44.916Z,21.80
2018-06-08T10:20:14.295Z,26.00
2018-06-08T10:22:43.244Z,34.43
2018-06-08T10:25:12.013Z,24.77
2018-06-08T10:27:40.915Z,20.87
2018-06-08T10:30:09.729Z,25.27
2018-06-08T10:32:38.562Z,27.43
2018-06-08T10:35:07.397Z,26.97
2018-06-08T10:37:36.674Z,25.20
2018-06-08T10:40:05.616Z,29.40
2018-06-08T10:42:34.625Z,36.73
2018-06-08T10:45:03.730Z,34.20
2018-06-08T10:47:32.459Z,34.73
2018-06-08T10:50:01.397Z,27.27
2018-06-08T10:52:30.628Z,32.70
2018-06-08T10:55:00.826Z,33.37
2018-06-08T10:57:31.928Z,33.30
2018-06-08T11:00:13.763Z,35.50
2018-06-08T11:02:42.969Z,27.80
2018-06-08T11:05:12.075Z,27.10
2018-06-08T11:07:40.908Z,22.63
2018-06-08T11:10:09.787Z,24.10
2018-06-08T11:12:38.793Z,27.30
2018-06-08T11:15:07.978Z,28.03
2018-06-08T11:17:37.265Z,26.00
2018-06-08T11:20:06.353Z,27.03
2018-06-08T11:22:35.242Z,25.33
2018-06-08T11:25:05.113Z,25.73
2018-06-08T11:27:34.301Z,38.63
2018-06-08T11:30:03.432Z,22.70
2018-06-08T11:32:32.611Z,28.07
2018-06-08T11:35:01.507Z,24.87
2018-06-08T11:37:30.316Z,20.70
2018-06-08T11:39:59.192Z,17.13
2018-06-08T11:42:27.995Z,23.63
2018-06-08T11:44:56.357Z,20.63
2018-06-08T11:47:25.313Z,16.07
2018-06-08T11:49:54.077Z,23.40
2018-06-08T11:52:22.953Z,25.83
2018-06-08T11:54:51.802Z,16.93
2018-06-08T11:57:20.633Z,19.50
2018-06-08T11:59:49.473Z,18.93
2018-06-08T12:02:18.484Z,17.90
2018-06-08T12:04:47.590Z,18.17
2018-06-08T12:07:16.385Z,20.37
2018-06-08T12:09:45.292Z,30.63
2018-06-08T12:12:14.162Z,19.27
2018-06-08T12:14:44.284Z,19.73
2018-06-08T12:17:16.809Z,18.30
2018-06-08T12:19:46.064Z,19.03
2018-06-08T12:22:16.896Z,13.60
2018-06-08T12:25:02.977Z,19.00
2018-06-08T12:27:31.865Z,24.03
2018-06-08T12:30:00.760Z,16.63
2018-06-08T12:32:29.734Z,15.90
2018-06-08T12:35:00.471Z,16.17
2018-06-08T12:37:29.445Z,14.70
2018-06-08T12:40:06.870Z,16.90
2018-06-08T12:42:35.997Z,20.40
2018-06-08T12:45:05.029Z,11.30
2018-06-08T12:47:35.844Z,10.37
2018-06-08T12:50:05.118Z,8.80
2018-06-08T12:52:34.106Z,9.50
2018-06-08T12:55:02.872Z,10.93
2018-06-08T12:57:31.870Z,12.73
2018-06-08T13:00:01.264Z,12.17
2018-06-08T13:02:30.203Z,11.27
2018-06-08T13:05:00.178Z,11.53
2018-06-08T13:07:29.676Z,17.60
2018-06-08T13:09:59.165Z,10.60
2018-06-08T13:12:28.000Z,9.90
2018-06-08T13:14:56.935Z,9.70
2018-06-08T13:17:26.055Z,19.30
2018-06-08T13:19:55.474Z,14.13
2018-06-08T13:22:24.217Z,11.23
2018-06-08T13:24:53.371Z,11.60
2018-06-08T13:27:22.261Z,10.60
2018-06-08T13:29:51.546Z,17.53
2018-06-08T13:32:20.517Z,13.00
2018-06-08T13:34:49.509Z,12.90
2018-06-08T13:37:18.678Z,10.80
2018-06-08T13:39:47.615Z,10.30
2018-06-08T13:42:16.491Z,14.03
2018-06-08T13:44:45.525Z,10.90
2018-06-08T13:47:15.007Z,9.37
2018-06-08T13:49:43.917Z,11.07
2018-06-08T13:52:12.695Z,15.93
2018-06-08T13:54:41.806Z,11.23
2018-06-08T13:57:10.931Z,10.63
2018-06-08T13:59:39.997Z,10.77
2018-06-08T14:02:09.143Z,11.63
2018-06-08T14:04:38.292Z,10.53
2018-06-08T14:07:07.285Z,10.60
2018-06-08T14:09:36.233Z,9.60
2018-06-08T14:12:05.126Z,8.77
2018-06-08T14:14:33.983Z,9.93
2018-06-08T14:17:02.885Z,19.57
2018-06-08T14:19:32.871Z,13.60
2018-06-08T14:22:02.074Z,10.43
2018-06-08T14:24:32.498Z,9.23
2018-06-08T14:27:02.678Z,9.00
2018-06-08T14:29:32.783Z,9.57
2018-06-08T14:32:04.666Z,10.17
2018-06-08T14:34:35.154Z,10.10
2018-06-08T14:37:04.019Z,11.70
2018-06-08T14:39:32.943Z,9.37
2018-06-08T14:42:01.942Z,11.70
2018-06-08T14:44:30.909Z,11.03
2018-06-08T14:46:59.869Z,9.60
2018-06-08T14:49:28.825Z,9.40
2018-06-08T14:51:58.121Z,9.23
2018-06-08T14:54:27.054Z,10.13
2018-06-08T14:56:56.621Z,13.10
2018-06-08T14:59:26.022Z,16.20
2018-06-08T15:01:55.041Z,9.27
2018-06-08T15:04:23.869Z,13.47
2018-06-08T15:06:52.739Z,9.33
2018-06-08T15:09:21.666Z,9.37
2018-06-08T15:11:50.592Z,10.23
2018-06-08T15:14:19.414Z,9.00
2018-06-08T15:16:48.390Z,14.30
2018-06-08T15:19:17.707Z,11.07
2018-06-08T15:21:46.571Z,11.17
2018-06-08T15:24:16.598Z,11.37
2018-06-08T15:26:45.715Z,11.70
2018-06-08T15:29:14.579Z,12.00
2018-06-08T15:31:43.620Z,9.93
2018-06-08T15:34:12.503Z,13.10
2018-06-08T15:36:41.487Z,10.37
2018-06-08T15:39:10.483Z,11.73
2018-06-08T15:41:39.532Z,12.90
2018-06-08T15:44:08.296Z,13.23
2018-06-08T15:46:37.203Z,11.83
2018-06-08T15:49:06.062Z,11.83
2018-06-08T15:51:35.189Z,16.83
2018-06-08T15:54:04.382Z,10.40
2018-06-08T15:56:33.245Z,8.80
2018-06-08T15:59:02.190Z,14.20
2018-06-08T16:01:30.994Z,9.77
2018-06-08T16:03:59.914Z,9.93
2018-06-08T16:06:28.949Z,9.47
2018-06-08T16:08:57.958Z,8.10
2018-06-08T16:11:26.953Z,9.33
2018-06-08T16:13:55.751Z,8.77
2018-06-08T16:16:24.603Z,8.57
2018-06-08T16:18:53.601Z,8.40
2018-06-08T16:21:22.509Z,9.80
2018-06-08T16:23:51.277Z,8.90
2018-06-08T16:26:20.227Z,11.63
2018-06-08T16:28:49.093Z,9.53
2018-06-08T16:31:17.910Z,11.23
2018-06-08T16:33:46.794Z,9.43
2018-06-08T16:36:15.716Z,8.80
2018-06-08T16:38:44.474Z,11.23
2018-06-08T16:41:13.392Z,8.90
2018-06-08T16:43:42.249Z,9.40
2018-06-08T16:46:11.147Z,10.70
2018-06-08T16:48:40.155Z,12.10
2018-06-08T16:51:15.023Z,10.43
2018-06-08T16:53:43.881Z,8.93
2018-06-08T16:56:12.815Z,9.57
2018-06-08T16:58:41.633Z,15.83
2018-06-08T17:01:10.474Z,9.80
2018-06-08T17:03:39.345Z,13.50
2018-06-08T17:06:08.236Z,11.13
2018-06-08T17:08:37.168Z,11.67
2018-06-08T17:11:06.076Z,15.47
2018-06-08T17:13:34.985Z,10.47
2018-06-08T17:16:05.816Z,14.90
2018-06-08T17:18:34.236Z,9.60
2018-06-08T17:21:03.345Z,10.30
2018-06-08T17:23:32.175Z,9.03
2018-06-08T17:26:00.963Z,7.87
2018-06-08T17:28:29.882Z,9.33
2018-06-08T17:31:03.183Z,11.10
2018-06-08T17:33:32.111Z,9.80
2018-06-08T17:36:00.953Z,6.90
2018-06-08T17:38:29.907Z,8.93
2018-06-08T17:41:00.686Z,8.70
2018-06-08T17:43:29.683Z,9.07
2018-06-08T17:45:59.240Z,8.83
2018-06-08T17:48:28.534Z,8.03
2018-06-08T17:50:57.453Z,9.70
2018-06-08T17:53:26.357Z,8.77
2018-06-08T17:55:55.345Z,12.07
2018-06-08T17:58:24.162Z,12.67
2018-06-08T18:00:53.082Z,12.70
2018-06-08T18:03:22.035Z,14.77
2018-06-08T18:05:51.037Z,11.23
2018-06-08T18:08:19.995Z,12.30
2018-06-08T18:10:48.983Z,11.00
2018-06-08T18:13:17.921Z,13.20
2018-06-08T18:15:46.839Z,12.37
2018-06-08T18:18:15.706Z,15.23
2018-06-08T18:20:44.686Z,11.60
2018-06-08T18:23:13.601Z,13.73
2018-06-08T18:25:42.531Z,14.73
2018-06-08T18:28:11.405Z,10.97
2018-06-08T18:30:40.285Z,13.40
2018-06-08T18:33:09.254Z,15.30
2018-06-08T18:35:38.207Z,13.23
2018-06-08T18:38:07.107Z,14.83
2018-06-08T18:40:36.038Z,17.40
2018-06-08T18:43:05.084Z,17.33
2018-06-08T18:45:34.067Z,14.70
2018-06-08T18:48:03.035Z,26.40
2018-06-08T18:50:31.940Z,17.23
2018-06-08T18:53:00.842Z,14.23
2018-06-08T18:55:29.823Z,15.07
2018-06-08T19:00:27.025Z,15.13
2018-06-08T19:02:55.839Z,17.20
2018-06-08T19:05:24.526Z,20.53
2018-06-08T19:07:53.350Z,14.70
2018-06-08T19:10:27.113Z,12.10
2018-06-08T19:12:55.877Z,16.20
2018-06-08T19:15:24.621Z,14.97
2018-06-08T19:17:53.452Z,14.20
2018-06-08T19:20:22.273Z,8.43
2018-06-08T19:22:50.998Z,12.47
2018-06-08T19:25:19.775Z,15.33
2018-06-08T19:27:48.505Z,11.50
2018-06-08T19:30:17.341Z,9.70
2018-06-08T19:32:46.147Z,9.33
2018-06-08T19:35:14.960Z,12.07
2018-06-08T19:37:43.738Z,10.00
2018-06-08T19:40:12.537Z,10.90
2018-06-08T19:42:41.299Z,11.97
2018-06-08T19:45:10.172Z,8.43
2018-06-08T19:47:39.141Z,8.50
2018-06-08T19:50:07.847Z,9.53
2018-06-08T19:52:36.583Z,14.73
2018-06-08T19:55:05.495Z,12.53
2018-06-08T19:57:34.239Z,11.17
2018-06-08T20:00:03.027Z,10.10
2018-06-08T20:02:34.269Z,16.03
2018-06-08T20:05:03.074Z,14.57
2018-06-08T20:07:31.822Z,12.63
2018-06-08T20:10:00.660Z,10.43
2018-06-08T20:12:29.385Z,16.17
2018-06-08T20:14:58.157Z,10.20
2018-06-08T20:17:26.950Z,9.73
2018-06-08T20:19:55.809Z,13.97
2018-06-08T20:22:24.456Z,13.47
2018-06-08T20:24:53.328Z,10.30
2018-06-08T20:27:22.044Z,10.93
2018-06-08T20:29:50.810Z,11.57
2018-06-08T20:32:19.584Z,15.90
2018-06-08T20:34:48.331Z,13.37
2018-06-08T20:37:17.050Z,15.97
2018-06-08T20:39:45.822Z,15.23
2018-06-08T20:42:14.529Z,13.03
2018-06-08T20:44:45.032Z,11.83
2018-06-08T20:47:13.756Z,13.07
2018-06-08T20:49:42.429Z,10.53
2018-06-08T20:52:11.197Z,12.00
2018-06-08T20:54:39.953Z,12.93
2018-06-08T20:57:23.409Z,11.90
2018-06-08T20:59:52.158Z,12.40
2018-06-08T21:02:21.050Z,15.50
2018-06-08T21:04:49.781Z,11.07
2018-06-08T21:07:18.651Z,13.63
2018-06-08T21:09:47.374Z,10.17
2018-06-08T21:12:16.119Z,10.40
2018-06-08T21:14:44.880Z,22.67
2018-06-08T21:17:13.605Z,16.07
2018-06-08T21:19:42.366Z,10.63
2018-06-08T21:22:11.091Z,15.00
2018-06-08T21:24:39.761Z,12.77
2018-06-08T21:27:08.582Z,18.40
2018-06-08T21:29:37.250Z,17.50
2018-06-08T21:32:06.027Z,12.90
2018-06-08T21:34:34.727Z,15.70
2018-06-08T21:37:03.529Z,17.23
2018-06-08T21:39:32.251Z,11.07
2018-06-08T21:42:00.958Z,13.70
2018-06-08T21:44:29.701Z,13.60
2018-06-08T21:46:58.461Z,15.90
2018-06-08T21:49:27.189Z,11.60
2018-06-08T21:51:55.937Z,13.73
2018-06-08T21:54:24.708Z,13.10
2018-06-08T21:56:53.478Z,15.10
2018-06-08T21:59:22.189Z,11.70
2018-06-08T22:01:50.943Z,15.50
2018-06-08T22:04:19.769Z,12.07
2018-06-08T22:06:48.554Z,12.40
2018-06-08T22:09:18.667Z,17.80
2018-06-08T22:11:47.524Z,12.10
2018-06-08T22:14:16.390Z,13.03
2018-06-08T22:16:45.103Z,19.43
2018-06-08T22:19:13.857Z,15.63
2018-06-08T22:21:42.574Z,16.63
2018-06-08T22:24:11.313Z,13.57
2018-06-08T22:26:40.195Z,13.57
2018-06-08T22:29:08.912Z,13.50
2018-06-08T22:31:37.676Z,12.97
2018-06-08T22:34:06.586Z,10.57
2018-06-08T22:36:35.332Z,13.00
2018-06-08T22:39:05.841Z,10.97
2018-06-08T22:41:34.593Z,13.50
2018-06-08T22:44:03.313Z,14.87
2018-06-08T22:46:32.080Z,11.73
2018-06-08T22:49:00.820Z,14.17
2018-06-08T22:51:29.568Z,12.73
2018-06-08T22:53:58.297Z,19.43
2018-06-08T22:56:27.019Z,12.17
2018-06-08T22:58:55.761Z,11.30
2018-06-08T23:01:24.549Z,13.10
2018-06-08T23:03:53.300Z,16.43
2018-06-08T23:06:22.044Z,15.80
2018-06-08T23:08:50.743Z,12.13
2018-06-08T23:11:19.495Z,16.00
2018-06-08T23:13:48.211Z,16.23
2018-06-08T23:16:16.953Z,15.03
2018-06-08T23:18:45.679Z,16.47
2018-06-08T23:21:14.457Z,20.57
2018-06-08T23:23:43.197Z,13.03
2018-06-08T23:26:11.969Z,14.07
2018-06-08T23:28:40.677Z,16.73
2018-06-08T23:31:09.389Z,17.43
2018-06-08T23:33:38.129Z,17.57
2018-06-08T23:36:06.839Z,15.17
2018-06-08T23:38:35.839Z,17.83
2018-06-08T23:41:04.557Z,16.73
2018-06-08T23:43:33.327Z,16.60
2018-06-08T23:46:02.117Z,14.60
2018-06-08T23:48:30.899Z,15.93
2018-06-08T23:50:59.758Z,16.57
2018-06-08T23:53:28.473Z,15.07
2018-06-08T23:55:57.241Z,19.30
2018-06-08T23:58:25.889Z,19.43
